sensor_id;sensor_type;location;lat;lon;timestamp;pressure;altitude;pressure_sealevel;temperature;humidity
62592;BME280;48659;41.622;2.276;2023-05-17T12:22:58;99462.54;;;18.84;27.59
62592;BME280;48659;41.622;2.276;2023-05-17T12:25:25;99467.12;;;19.15;27.44
62592;BME280;48659;41.622;2.276;2023-05-17T12:28:12;99469.71;;;19.32;27.19
62592;BME280;48659;41.622;2.276;2023-05-17T12:30:41;99469.53;;;19.50;28.68
62592;BME280;48659;41.622;2.276;2023-05-17T12:33:11;99467.12;;;20.43;27.55
62592;BME280;48659;41.622;2.276;2023-05-17T12:35:38;99466.23;;;19.34;30.11
62592;BME280;48659;41.622;2.276;2023-05-17T12:38:06;99464.14;;;19.56;30.59
62592;BME280;48659;41.622;2.276;2023-05-17T12:40:34;99478.63;;;20.65;29.38
62592;BME280;48659;41.622;2.276;2023-05-17T12:43:02;99473.02;;;21.43;28.68
62592;BME280;48659;41.622;2.276;2023-05-17T12:45:32;99481.46;;;20.33;29.15
62592;BME280;48659;41.622;2.276;2023-05-17T12:47:59;99477.81;;;19.41;29.54
62592;BME280;48659;41.622;2.276;2023-05-17T12:50:28;99479.01;;;19.93;29.37
62592;BME280;48659;41.622;2.276;2023-05-17T12:52:58;99476.57;;;19.40;29.20
62592;BME280;48659;41.622;2.276;2023-05-17T12:55:36;99484.55;;;19.23;26.69
62592;BME280;48659;41.622;2.276;2023-05-17T12:58:03;99487.37;;;18.96;27.77
62592;BME280;48659;41.622;2.276;2023-05-17T13:00:31;99489.19;;;19.39;28.13
62592;BME280;48659;41.622;2.276;2023-05-17T13:02:59;99496.41;;;18.83;29.29
62592;BME280;48659;41.622;2.276;2023-05-17T13:05:27;99500.55;;;18.70;31.36
62592;BME280;48659;41.622;2.276;2023-05-17T13:07:54;99500.15;;;19.39;30.79
62592;BME280;48659;41.622;2.276;2023-05-17T13:10:23;99499.97;;;19.07;31.35
62592;BME280;48659;41.622;2.276;2023-05-17T13:12:55;99497.83;;;19.35;31.02
62592;BME280;48659;41.622;2.276;2023-05-17T13:15:27;99500.21;;;18.68;30.61
62592;BME280;48659;41.622;2.276;2023-05-17T13:17:59;99505.87;;;18.96;30.28
62592;BME280;48659;41.622;2.276;2023-05-17T13:20:26;99511.24;;;19.91;30.35
62592;BME280;48659;41.622;2.276;2023-05-17T13:22:58;99519.02;;;19.15;31.10
62592;BME280;48659;41.622;2.276;2023-05-17T13:25:26;99520.92;;;19.38;30.01
62592;BME280;48659;41.622;2.276;2023-05-17T13:27:58;99529.33;;;19.23;30.19
62592;BME280;48659;41.622;2.276;2023-05-17T13:30:25;99529.93;;;19.12;30.26
62592;BME280;48659;41.622;2.276;2023-05-17T13:32:53;99528.60;;;18.78;30.50
62592;BME280;48659;41.622;2.276;2023-05-17T13:35:20;99530.66;;;18.44;29.74
62592;BME280;48659;41.622;2.276;2023-05-17T13:37:48;99527.39;;;19.35;29.85
62592;BME280;48659;41.622;2.276;2023-05-17T13:40:15;99525.19;;;18.41;31.31
62592;BME280;48659;41.622;2.276;2023-05-17T13:42:43;99522.69;;;18.72;29.73
62592;BME280;48659;41.622;2.276;2023-05-17T13:45:10;99529.04;;;18.30;29.68
62592;BME280;48659;41.622;2.276;2023-05-17T13:47:38;99528.44;;;19.20;29.20
62592;BME280;48659;41.622;2.276;2023-05-17T13:50:06;99534.65;;;18.57;30.87
62592;BME280;48659;41.622;2.276;2023-05-17T13:52:34;99534.91;;;19.06;30.67
62592;BME280;48659;41.622;2.276;2023-05-17T13:55:02;99534.54;;;19.04;30.74
62592;BME280;48659;41.622;2.276;2023-05-17T13:57:29;99534.51;;;20.07;29.77
62592;BME280;48659;41.622;2.276;2023-05-17T13:59:56;99532.98;;;18.29;32.44
62592;BME280;48659;41.622;2.276;2023-05-17T14:02:24;99541.34;;;19.72;31.77
62592;BME280;48659;41.622;2.276;2023-05-17T14:04:51;99533.26;;;19.33;31.55
62592;BME280;48659;41.622;2.276;2023-05-17T14:07:19;99543.97;;;19.33;31.94
62592;BME280;48659;41.622;2.276;2023-05-17T14:09:46;99542.41;;;19.06;32.25
62592;BME280;48659;41.622;2.276;2023-05-17T14:12:14;99542.55;;;19.96;31.20
62592;BME280;48659;41.622;2.276;2023-05-17T14:14:42;99540.13;;;19.57;31.77
62592;BME280;48659;41.622;2.276;2023-05-17T14:17:09;99547.34;;;18.84;33.26
62592;BME280;48659;41.622;2.276;2023-05-17T14:19:37;99548.00;;;18.66;35.04
62592;BME280;48659;41.622;2.276;2023-05-17T14:22:05;99555.20;;;18.68;34.49
62592;BME280;48659;41.622;2.276;2023-05-17T14:24:33;99555.50;;;18.77;34.38
62592;BME280;48659;41.622;2.276;2023-05-17T14:27:00;99557.15;;;18.54;34.75
62592;BME280;48659;41.622;2.276;2023-05-17T14:29:28;99565.00;;;18.66;35.02
62592;BME280;48659;41.622;2.276;2023-05-17T14:31:57;99562.66;;;18.52;35.49
62592;BME280;48659;41.622;2.276;2023-05-17T14:34:25;99563.16;;;18.73;35.77
62592;BME280;48659;41.622;2.276;2023-05-17T14:36:58;99563.26;;;20.38;33.20
62592;BME280;48659;41.622;2.276;2023-05-17T14:39:26;99574.37;;;19.38;34.61
62592;BME280;48659;41.622;2.276;2023-05-17T14:41:58;99575.21;;;19.30;35.29
62592;BME280;48659;41.622;2.276;2023-05-17T14:44:25;99572.83;;;20.19;33.40
62592;BME280;48659;41.622;2.276;2023-05-17T14:46:53;99568.28;;;20.94;32.25
62592;BME280;48659;41.622;2.276;2023-05-17T14:49:20;99572.20;;;18.69;36.12
62592;BME280;48659;41.622;2.276;2023-05-17T14:51:47;99576.69;;;18.71;36.88
62592;BME280;48659;41.622;2.276;2023-05-17T14:54:15;99582.74;;;18.89;36.60
62592;BME280;48659;41.622;2.276;2023-05-17T14:56:42;99582.98;;;18.86;36.78
62592;BME280;48659;41.622;2.276;2023-05-17T14:59:09;99580.48;;;19.40;35.55
62592;BME280;48659;41.622;2.276;2023-05-17T15:01:37;99582.63;;;19.01;37.35
62592;BME280;48659;41.622;2.276;2023-05-17T15:04:05;99581.79;;;19.12;36.37
62592;BME280;48659;41.622;2.276;2023-05-17T15:06:33;99585.52;;;19.43;36.18
62592;BME280;48659;41.622;2.276;2023-05-17T15:09:00;99583.16;;;19.89;35.85
62592;BME280;48659;41.622;2.276;2023-05-17T15:11:28;99590.28;;;20.25;35.39
62592;BME280;48659;41.622;2.276;2023-05-17T15:13:59;99593.15;;;19.23;36.59
62592;BME280;48659;41.622;2.276;2023-05-17T15:16:27;99594.81;;;18.88;37.66
62592;BME280;48659;41.622;2.276;2023-05-17T15:18:58;99592.62;;;19.49;35.86
62592;BME280;48659;41.622;2.276;2023-05-17T15:21:26;99594.98;;;18.87;36.91
62592;BME280;48659;41.622;2.276;2023-05-17T15:23:53;99599.72;;;19.10;37.10
62592;BME280;48659;41.622;2.276;2023-05-17T15:26:20;99601.61;;;18.28;39.70
62592;BME280;48659;41.622;2.276;2023-05-17T15:28:48;99601.46;;;17.98;40.95
62592;BME280;48659;41.622;2.276;2023-05-17T15:31:15;99609.41;;;19.15;39.88
62592;BME280;48659;41.622;2.276;2023-05-17T15:33:43;99603.41;;;20.43;36.99
62592;BME280;48659;41.622;2.276;2023-05-17T15:36:11;99608.42;;;19.36;39.00
62592;BME280;48659;41.622;2.276;2023-05-17T15:38:39;99615.23;;;19.00;40.53
62592;BME280;48659;41.622;2.276;2023-05-17T15:41:10;99610.54;;;19.05;40.54
62592;BME280;48659;41.622;2.276;2023-05-17T15:43:37;99604.37;;;20.48;38.49
62592;BME280;48659;41.622;2.276;2023-05-17T15:46:05;99610.88;;;18.91;40.22
62592;BME280;48659;41.622;2.276;2023-05-17T15:48:32;99616.21;;;18.61;40.79
62592;BME280;48659;41.622;2.276;2023-05-17T15:51:01;99616.23;;;18.04;43.18
62592;BME280;48659;41.622;2.276;2023-05-17T15:53:29;99615.01;;;18.43;42.52
62592;BME280;48659;41.622;2.276;2023-05-17T15:55:56;99623.05;;;18.06;43.91
62592;BME280;48659;41.622;2.276;2023-05-17T15:58:24;99623.77;;;17.58;44.29
62592;BME280;48659;41.622;2.276;2023-05-17T16:00:52;99622.08;;;17.77;44.65
62592;BME280;48659;41.622;2.276;2023-05-17T16:03:20;99626.15;;;17.66;44.72
62592;BME280;48659;41.622;2.276;2023-05-17T16:06:04;99627.69;;;19.21;42.44
62592;BME280;48659;41.622;2.276;2023-05-17T16:08:32;99624.78;;;19.79;40.94
62592;BME280;48659;41.622;2.276;2023-05-17T16:10:59;99623.12;;;19.42;40.53
62592;BME280;48659;41.622;2.276;2023-05-17T16:13:27;99625.87;;;18.85;41.25
62592;BME280;48659;41.622;2.276;2023-05-17T16:15:58;99624.61;;;18.59;41.57
62592;BME280;48659;41.622;2.276;2023-05-17T16:18:26;99622.01;;;20.29;38.42
62592;BME280;48659;41.622;2.276;2023-05-17T16:20:58;99621.39;;;20.24;37.98
62592;BME280;48659;41.622;2.276;2023-05-17T16:23:26;99627.18;;;19.17;41.49
62592;BME280;48659;41.622;2.276;2023-05-17T16:25:57;99628.87;;;18.84;42.10
62592;BME280;48659;41.622;2.276;2023-05-17T16:28:25;99632.83;;;19.17;41.97
62592;BME280;48659;41.622;2.276;2023-05-17T16:30:52;99631.44;;;19.52;39.77
62592;BME280;48659;41.622;2.276;2023-05-17T16:33:20;99634.60;;;20.54;39.15
62592;BME280;48659;41.622;2.276;2023-05-17T16:35:48;99640.59;;;21.13;38.40
62592;BME280;48659;41.622;2.276;2023-05-17T16:38:15;99641.55;;;19.55;41.39
62592;BME280;48659;41.622;2.276;2023-05-17T16:40:43;99643.17;;;19.08;42.71
62592;BME280;48659;41.622;2.276;2023-05-17T16:43:10;99637.93;;;20.58;38.64
62592;BME280;48659;41.622;2.276;2023-05-17T16:45:38;99641.01;;;18.88;40.98
62592;BME280;48659;41.622;2.276;2023-05-17T16:48:06;99641.64;;;18.95;41.20
62592;BME280;48659;41.622;2.276;2023-05-17T16:50:33;99638.32;;;18.51;41.64
62592;BME280;48659;41.622;2.276;2023-05-17T16:53:01;99636.58;;;20.23;39.02
62592;BME280;48659;41.622;2.276;2023-05-17T16:55:28;99632.23;;;20.60;37.90
62592;BME280;48659;41.622;2.276;2023-05-17T16:57:58;99640.27;;;21.47;36.72
62592;BME280;48659;41.622;2.276;2023-05-17T17:00:25;99645.17;;;19.18;40.84
62592;BME280;48659;41.622;2.276;2023-05-17T17:02:58;99651.59;;;17.16;45.70
62592;BME280;48659;41.622;2.276;2023-05-17T17:05:25;99644.33;;;17.89;44.54
62592;BME280;48659;41.622;2.276;2023-05-17T17:07:57;99645.77;;;18.72;43.20
62592;BME280;48659;41.622;2.276;2023-05-17T17:10:25;99648.68;;;17.79;45.02
62592;BME280;48659;41.622;2.276;2023-05-17T17:12:58;99650.51;;;18.09;44.79
62592;BME280;48659;41.622;2.276;2023-05-17T17:15:26;99650.94;;;19.89;41.26
62592;BME280;48659;41.622;2.276;2023-05-17T17:17:58;99653.31;;;18.77;43.16
62592;BME280;48659;41.622;2.276;2023-05-17T17:20:25;99650.24;;;19.36;41.57
62592;BME280;48659;41.622;2.276;2023-05-17T17:22:58;99644.77;;;19.93;40.35
62592;BME280;48659;41.622;2.276;2023-05-17T17:25:25;99646.46;;;19.41;41.21
62592;BME280;48659;41.622;2.276;2023-05-17T17:27:58;99649.94;;;19.17;42.77
62592;BME280;48659;41.622;2.276;2023-05-17T17:30:25;99649.03;;;18.95;42.89
62592;BME280;48659;41.622;2.276;2023-05-17T17:32:58;99659.48;;;17.45;45.64
62592;BME280;48659;41.622;2.276;2023-05-17T17:35:26;99651.96;;;18.92;43.70
62592;BME280;48659;41.622;2.276;2023-05-17T17:37:54;99653.47;;;19.35;41.25
62592;BME280;48659;41.622;2.276;2023-05-17T17:40:21;99655.00;;;19.85;40.37
62592;BME280;48659;41.622;2.276;2023-05-17T17:42:48;99661.38;;;19.48;41.59
62592;BME280;48659;41.622;2.276;2023-05-17T17:45:16;99656.47;;;21.35;38.58
62592;BME280;48659;41.622;2.276;2023-05-17T17:47:43;99663.44;;;18.67;42.13
62592;BME280;48659;41.622;2.276;2023-05-17T17:50:11;99662.27;;;20.21;39.81
62592;BME280;48659;41.622;2.276;2023-05-17T17:52:39;99667.84;;;19.43;41.23
62592;BME280;48659;41.622;2.276;2023-05-17T17:55:08;99669.91;;;21.00;38.37
62592;BME280;48659;41.622;2.276;2023-05-17T17:57:35;99674.10;;;20.09;39.64
62592;BME280;48659;41.622;2.276;2023-05-17T18:00:03;99675.59;;;19.89;40.08
62592;BME280;48659;41.622;2.276;2023-05-17T18:02:31;99678.96;;;19.15;41.68
62592;BME280;48659;41.622;2.276;2023-05-17T18:04:59;99673.91;;;20.16;39.61
62592;BME280;48659;41.622;2.276;2023-05-17T18:07:26;99676.06;;;21.20;39.40
62592;BME280;48659;41.622;2.276;2023-05-17T18:10:03;99677.48;;;21.21;38.21
62592;BME280;48659;41.622;2.276;2023-05-17T18:12:31;99681.87;;;21.54;37.79
62592;BME280;48659;41.622;2.276;2023-05-17T18:14:58;99687.46;;;19.14;42.64
62592;BME280;48659;41.622;2.276;2023-05-17T18:17:26;99691.59;;;18.98;42.52
62592;BME280;48659;41.622;2.276;2023-05-17T18:19:53;99687.89;;;20.84;39.79
62592;BME280;48659;41.622;2.276;2023-05-17T18:22:20;99691.98;;;21.39;39.11
62592;BME280;48659;41.622;2.276;2023-05-17T18:24:47;99697.65;;;18.14;44.64
62592;BME280;48659;41.622;2.276;2023-05-17T18:27:14;99708.39;;;17.51;45.56
62592;BME280;48659;41.622;2.276;2023-05-17T18:29:41;99702.66;;;18.72;44.25
62592;BME280;48659;41.622;2.276;2023-05-17T18:32:09;99715.56;;;17.66;45.76
62592;BME280;48659;41.622;2.276;2023-05-17T18:34:36;99719.33;;;17.85;46.26
62592;BME280;48659;41.622;2.276;2023-05-17T18:37:04;99727.33;;;17.24;46.73
62592;BME280;48659;41.622;2.276;2023-05-17T18:39:31;99720.46;;;18.54;44.68
62592;BME280;48659;41.622;2.276;2023-05-17T18:41:58;99721.35;;;18.94;43.78
62592;BME280;48659;41.622;2.276;2023-05-17T18:44:26;99720.72;;;18.61;44.68
62592;BME280;48659;41.622;2.276;2023-05-17T18:46:53;99721.73;;;19.67;42.60
62592;BME280;48659;41.622;2.276;2023-05-17T18:49:20;99715.04;;;19.15;43.56
62592;BME280;48659;41.622;2.276;2023-05-17T18:51:48;99718.86;;;18.71;44.76
62592;BME280;48659;41.622;2.276;2023-05-17T18:54:15;99721.63;;;18.66;43.82
62592;BME280;48659;41.622;2.276;2023-05-17T18:56:42;99723.51;;;19.00;43.99
62592;BME280;48659;41.622;2.276;2023-05-17T18:59:10;99725.07;;;19.66;42.45
62592;BME280;48659;41.622;2.276;2023-05-17T19:01:38;99725.56;;;19.93;42.41
62592;BME280;48659;41.622;2.276;2023-05-17T19:04:05;99727.03;;;20.05;41.85
62592;BME280;48659;41.622;2.276;2023-05-17T19:06:33;99732.05;;;20.46;41.80
62592;BME280;48659;41.622;2.276;2023-05-17T19:09:00;99735.42;;;18.98;43.22
62592;BME280;48659;41.622;2.276;2023-05-17T19:11:27;99739.75;;;19.56;43.21
62592;BME280;48659;41.622;2.276;2023-05-17T19:13:57;99737.41;;;19.95;41.98
62592;BME280;48659;41.622;2.276;2023-05-17T19:16:25;99742.06;;;19.88;42.01
62592;BME280;48659;41.622;2.276;2023-05-17T19:18:58;99742.65;;;19.91;41.71
62592;BME280;48659;41.622;2.276;2023-05-17T19:21:25;99742.66;;;19.62;42.22
62592;BME280;48659;41.622;2.276;2023-05-17T19:23:53;99739.66;;;20.03;41.72
62592;BME280;48659;41.622;2.276;2023-05-17T19:26:21;99740.82;;;19.75;42.69
62592;BME280;48659;41.622;2.276;2023-05-17T19:28:49;99740.64;;;19.96;42.47
62592;BME280;48659;41.622;2.276;2023-05-17T19:31:17;99743.21;;;19.47;43.00
62592;BME280;48659;41.622;2.276;2023-05-17T19:33:44;99747.41;;;19.09;43.81
62592;BME280;48659;41.622;2.276;2023-05-17T19:36:11;99743.70;;;19.72;42.64
62592;BME280;48659;41.622;2.276;2023-05-17T19:38:39;99744.80;;;19.85;42.48
62592;BME280;48659;41.622;2.276;2023-05-17T19:41:08;99755.81;;;18.01;45.56
62592;BME280;48659;41.622;2.276;2023-05-17T19:43:35;99758.19;;;19.62;43.16
62592;BME280;48659;41.622;2.276;2023-05-17T19:46:03;99762.39;;;18.58;44.52
62592;BME280;48659;41.622;2.276;2023-05-17T19:48:31;99774.33;;;18.15;45.37
62592;BME280;48659;41.622;2.276;2023-05-17T19:50:58;99768.33;;;18.77;44.33
62592;BME280;48659;41.622;2.276;2023-05-17T19:53:26;99770.14;;;19.52;42.90
62592;BME280;48659;41.622;2.276;2023-05-17T19:55:53;99772.51;;;19.75;43.00
62592;BME280;48659;41.622;2.276;2023-05-17T19:58:21;99777.75;;;18.82;44.13
62592;BME280;48659;41.622;2.276;2023-05-17T20:00:48;99775.65;;;19.19;43.92
62592;BME280;48659;41.622;2.276;2023-05-17T20:03:15;99782.48;;;17.11;47.71
62592;BME280;48659;41.622;2.276;2023-05-17T20:05:42;99785.04;;;16.18;50.51
62592;BME280;48659;41.622;2.276;2023-05-17T20:08:09;99782.57;;;16.58;49.50
62592;BME280;48659;41.622;2.276;2023-05-17T20:10:37;99780.27;;;18.26;46.30
62592;BME280;48659;41.622;2.276;2023-05-17T20:13:05;99784.80;;;17.95;46.68
62592;BME280;48659;41.622;2.276;2023-05-17T20:15:33;99776.85;;;19.23;44.60
62592;BME280;48659;41.622;2.276;2023-05-17T20:18:02;99780.53;;;19.23;44.10
62592;BME280;48659;41.622;2.276;2023-05-17T20:20:30;99782.90;;;18.63;45.01
62592;BME280;48659;41.622;2.276;2023-05-17T20:22:58;99780.78;;;18.90;44.71
62592;BME280;48659;41.622;2.276;2023-05-17T20:25:26;99784.05;;;19.33;44.04
62592;BME280;48659;41.622;2.276;2023-05-17T20:27:54;99796.24;;;18.30;46.06
62592;BME280;48659;41.622;2.276;2023-05-17T20:30:22;99795.05;;;18.98;45.00
62592;BME280;48659;41.622;2.276;2023-05-17T20:32:50;99793.25;;;19.36;44.54
62592;BME280;48659;41.622;2.276;2023-05-17T20:35:18;99804.41;;;17.76;47.28
62592;BME280;48659;41.622;2.276;2023-05-17T20:37:46;99800.63;;;19.46;44.50
62592;BME280;48659;41.622;2.276;2023-05-17T20:40:13;99807.38;;;18.79;45.79
62592;BME280;48659;41.622;2.276;2023-05-17T20:42:41;99805.90;;;18.94;45.03
62592;BME280;48659;41.622;2.276;2023-05-17T20:45:09;99810.79;;;16.92;49.25
62592;BME280;48659;41.622;2.276;2023-05-17T20:47:36;99816.22;;;17.93;47.74
62592;BME280;48659;41.622;2.276;2023-05-17T20:50:03;99813.83;;;18.69;46.02
62592;BME280;48659;41.622;2.276;2023-05-17T20:52:31;99820.57;;;18.89;45.52
62592;BME280;48659;41.622;2.276;2023-05-17T20:54:58;99824.52;;;18.78;45.73
62592;BME280;48659;41.622;2.276;2023-05-17T20:57:25;99832.30;;;17.34;48.71
62592;BME280;48659;41.622;2.276;2023-05-17T21:00:01;99832.39;;;18.69;46.37
62592;BME280;48659;41.622;2.276;2023-05-17T21:02:29;99831.80;;;18.43;46.78
62592;BME280;48659;41.622;2.276;2023-05-17T21:05:00;99834.15;;;18.08;47.11
62592;BME280;48659;41.622;2.276;2023-05-17T21:07:27;99837.46;;;17.08;48.61
62592;BME280;48659;41.622;2.276;2023-05-17T21:09:54;99838.34;;;16.64;51.28
62592;BME280;48659;41.622;2.276;2023-05-17T21:12:22;99840.87;;;18.22;47.87
62592;BME280;48659;41.622;2.276;2023-05-17T21:14:59;99841.72;;;17.56;48.24
62592;BME280;48659;41.622;2.276;2023-05-17T21:17:26;99845.28;;;18.01;47.54
62592;BME280;48659;41.622;2.276;2023-05-17T21:19:54;99846.39;;;18.31;47.02
62592;BME280;48659;41.622;2.276;2023-05-17T21:22:21;99854.14;;;15.64;51.87
62592;BME280;48659;41.622;2.276;2023-05-17T21:25:00;99858.20;;;15.84;53.03
62592;BME280;48659;41.622;2.276;2023-05-17T21:27:27;99859.65;;;15.87;52.96
62592;BME280;48659;41.622;2.276;2023-05-17T21:29:59;99858.38;;;16.84;50.20
62592;BME280;48659;41.622;2.276;2023-05-17T21:32:27;99859.34;;;17.08;50.58
62592;BME280;48659;41.622;2.276;2023-05-17T21:34:55;99864.88;;;15.35;54.19
62592;BME280;48659;41.622;2.276;2023-05-17T21:37:22;99873.70;;;13.45;59.91
62592;BME280;48659;41.622;2.276;2023-05-17T21:40:09;99868.91;;;15.34;56.43
62592;BME280;48659;41.622;2.276;2023-05-17T21:42:36;99872.06;;;16.19;54.03
62592;BME280;48659;41.622;2.276;2023-05-17T21:45:05;99880.69;;;14.44;57.76
62592;BME280;48659;41.622;2.276;2023-05-17T21:47:33;99881.20;;;14.75;56.68
62592;BME280;48659;41.622;2.276;2023-05-17T21:50:02;99882.42;;;12.96;62.97
62592;BME280;48659;41.622;2.276;2023-05-17T21:52:29;99887.51;;;13.18;62.68
62592;BME280;48659;41.622;2.276;2023-05-17T21:54:56;99889.59;;;13.84;61.20
62592;BME280;48659;41.622;2.276;2023-05-17T21:57:23;99890.71;;;13.16;62.98
62592;BME280;48659;41.622;2.276;2023-05-17T21:59:59;99893.14;;;14.52;60.14
62592;BME280;48659;41.622;2.276;2023-05-17T22:02:26;99891.42;;;14.55;58.50
62592;BME280;48659;41.622;2.276;2023-05-17T22:04:59;99893.20;;;13.94;58.31
62592;BME280;48659;41.622;2.276;2023-05-17T22:07:26;99889.48;;;13.06;61.96
62592;BME280;48659;41.622;2.276;2023-05-17T22:09:53;99891.17;;;14.03;58.80
62592;BME280;48659;41.622;2.276;2023-05-17T22:12:20;99890.82;;;13.61;60.45
62592;BME280;48659;41.622;2.276;2023-05-17T22:14:47;99892.80;;;14.23;60.03
62592;BME280;48659;41.622;2.276;2023-05-17T22:17:14;99893.39;;;14.37;58.76
62592;BME280;48659;41.622;2.276;2023-05-17T22:19:41;99893.86;;;13.78;58.55
62592;BME280;48659;41.622;2.276;2023-05-17T22:22:08;99898.61;;;12.04;63.84
62592;BME280;48659;41.622;2.276;2023-05-17T22:24:35;99890.46;;;15.22;56.80
62592;BME280;48659;41.622;2.276;2023-05-17T22:27:03;99884.61;;;15.08;54.51
62592;BME280;48659;41.622;2.276;2023-05-17T22:29:30;99888.28;;;13.48;59.65
62592;BME280;48659;41.622;2.276;2023-05-17T22:31:58;99891.84;;;14.35;57.11
62592;BME280;48659;41.622;2.276;2023-05-17T22:34:25;99887.04;;;14.79;54.56
62592;BME280;48659;41.622;2.276;2023-05-17T22:36:59;99886.88;;;12.74;62.15
62592;BME280;48659;41.622;2.276;2023-05-17T22:39:27;99886.43;;;12.62;63.04
62592;BME280;48659;41.622;2.276;2023-05-17T22:41:59;99882.32;;;13.46;59.12
62592;BME280;48659;41.622;2.276;2023-05-17T22:44:27;99879.15;;;14.13;57.83
62592;BME280;48659;41.622;2.276;2023-05-17T22:46:59;99876.37;;;14.52;56.87
62592;BME280;48659;41.622;2.276;2023-05-17T22:49:27;99876.19;;;12.54;61.71
62592;BME280;48659;41.622;2.276;2023-05-17T22:51:55;99875.15;;;12.28;62.16
62592;BME280;48659;41.622;2.276;2023-05-17T22:54:23;99870.28;;;13.04;60.99
62592;BME280;48659;41.622;2.276;2023-05-17T22:56:58;99872.25;;;12.68;62.68
62592;BME280;48659;41.622;2.276;2023-05-17T22:59:26;99874.61;;;11.95;64.98
62592;BME280;48659;41.622;2.276;2023-05-17T23:01:54;99875.90;;;12.33;64.24
62592;BME280;48659;41.622;2.276;2023-05-17T23:04:21;99873.80;;;14.29;58.87
62592;BME280;48659;41.622;2.276;2023-05-17T23:06:51;99877.08;;;13.88;57.71
62592;BME280;48659;41.622;2.276;2023-05-17T23:09:18;99879.37;;;12.41;62.92
62592;BME280;48659;41.622;2.276;2023-05-17T23:11:45;99882.68;;;11.42;66.16
62592;BME280;48659;41.622;2.276;2023-05-17T23:14:12;99877.40;;;13.54;60.75
62592;BME280;48659;41.622;2.276;2023-05-17T23:16:40;99882.98;;;12.03;65.68
62592;BME280;48659;41.622;2.276;2023-05-17T23:19:08;99878.68;;;11.97;63.55
62592;BME280;48659;41.622;2.276;2023-05-17T23:21:35;99876.99;;;14.10;58.36
62592;BME280;48659;41.622;2.276;2023-05-17T23:24:02;99879.31;;;14.58;56.31
62592;BME280;48659;41.622;2.276;2023-05-17T23:26:30;99877.52;;;13.32;59.61
62592;BME280;48659;41.622;2.276;2023-05-17T23:28:59;99877.60;;;13.82;58.49
62592;BME280;48659;41.622;2.276;2023-05-17T23:31:27;99877.69;;;12.67;60.19
62592;BME280;48659;41.622;2.276;2023-05-17T23:33:59;99872.89;;;12.20;61.56
62592;BME280;48659;41.622;2.276;2023-05-17T23:36:27;99873.25;;;12.21;61.86
62592;BME280;48659;41.622;2.276;2023-05-17T23:39:00;99874.10;;;11.49;65.43
62592;BME280;48659;41.622;2.276;2023-05-17T23:41:27;99869.39;;;14.43;57.35
62592;BME280;48659;41.622;2.276;2023-05-17T23:43:55;99863.46;;;12.97;58.28
62592;BME280;48659;41.622;2.276;2023-05-17T23:46:22;99860.50;;;12.86;59.79
62592;BME280;48659;41.622;2.276;2023-05-17T23:48:58;99868.27;;;12.49;61.43
62592;BME280;48659;41.622;2.276;2023-05-17T23:51:25;99857.97;;;13.21;57.82
62592;BME280;48659;41.622;2.276;2023-05-17T23:53:58;99856.14;;;13.03;60.39
62592;BME280;48659;41.622;2.276;2023-05-17T23:56:27;99857.91;;;11.85;62.00
62592;BME280;48659;41.622;2.276;2023-05-17T23:58:55;99857.27;;;14.10;57.44
